.
WxDataArchive / Data Records for 2010-12-17
2010-12-16 December 2010 2010-12-18

Data Records for Friday, 17 December 2010

Time	Temp	Chill	HIndex	Humid	Dewpt	 Wind 	HiWind	WindDir	Rain 	Barom 
-----	----	-----	------	-----	-----	------	------	-------	-----	----- 
00:00	24.2	24.2	24.2	77	18.1	1	3	248	0.00	29.977 
00:05	24.2	24.2	24.2	77	18.1	1	2	248	0.00	29.977 
00:10	24.1	24.1	24.1	78	18.3	1	2	248	0.00	29.977 
00:15	24.1	24.1	24.1	79	18.5	1	4	248	0.00	29.976 
00:20	24.1	24.1	24.1	79	18.5	1	3	248	0.00	29.976 
00:25	23.9	23.9	23.9	80	18.6	1	3	248	0.00	29.976 
00:30	23.9	23.9	23.9	81	18.9	1	3	248	0.00	29.970 
00:35	23.9	23.9	23.9	81	18.9	1	3	248	0.00	29.970 
00:40	23.9	23.9	23.9	81	18.9	0	1	248	0.00	29.970 
00:45	23.9	23.9	23.9	82	19.2	1	3	248	0.00	29.971 
00:50	23.8	23.8	23.8	82	19.1	0	2	248	0.00	29.971 
00:55	23.8	23.8	23.8	82	19.1	0	2	248	0.00	29.971 
01:00	23.8	23.8	23.8	83	19.4	1	3	248	0.00	29.966 
01:05	23.8	23.8	23.8	83	19.4	1	3	248	0.00	29.966 
01:10	23.6	23.6	23.6	84	19.5	0	2	248	0.00	29.966 
01:15	23.6	23.6	23.6	84	19.5	1	3	248	0.00	29.966 
01:20	23.6	23.6	23.6	84	19.5	1	2	248	0.00	29.966 
01:25	23.5	23.5	23.5	84	19.4	1	3	248	0.00	29.966 
01:30	23.5	23.5	23.5	84	19.4	1	3	248	0.00	29.968 
01:35	23.5	23.5	23.5	85	19.7	0	2	248	0.00	29.968 
01:40	23.3	23.3	23.3	85	19.5	1	3	248	0.00	29.968 
01:45	23.3	23.3	23.3	85	19.5	1	2	248	0.00	29.973 
01:50	23.3	23.3	23.3	85	19.5	1	4	248	0.00	29.973 
01:55	23.3	23.3	23.3	85	19.5	0	1	248	0.00	29.973 
02:00	23.3	23.3	23.3	85	19.5	0	2	248	0.00	29.977 
02:05	23.3	23.3	23.3	85	19.5	0	1	248	0.00	29.977 
02:10	23.2	23.2	23.2	86	19.6	0	2	248	0.00	29.977 
02:15	23.2	23.2	23.2	86	19.6	0	2	248	0.00	29.983 
02:20	23.2	23.2	23.2	86	19.6	0	1	248	0.00	29.983 
02:25	23.2	23.2	23.2	86	19.6	0	1	248	0.00	29.983 
02:30	23.2	23.2	23.2	86	19.6	0	2	248	0.00	29.990 
02:35	23.2	23.2	23.2	86	19.6	0	1	248	0.00	29.990 
02:40	23.2	23.2	23.2	86	19.6	0	4	248	0.00	29.990 
02:45	23.2	23.2	23.2	86	19.6	0	1	248	0.00	29.994 
02:50	23.0	23.0	23.0	86	19.4	0	2	248	0.00	29.994 
02:55	23.0	23.0	23.0	86	19.4	0	2	248	0.00	29.994 
03:00	22.9	22.9	22.9	86	19.4	0	1	248	0.00	30.000 
03:05	22.9	22.9	22.9	86	19.4	0	2	248	0.00	30.000 
03:10	22.7	22.7	22.7	86	19.2	1	2	248	0.00	30.000 
03:15	22.7	22.7	22.7	86	19.2	0	2	248	0.00	30.002 
03:20	22.7	22.7	22.7	86	19.2	0	2	248	0.00	30.002 
03:25	22.5	22.5	22.5	86	19.0	0	1	248	0.00	30.002 
03:30	22.5	22.5	22.5	86	19.0	0	1	248	0.00	30.008 
03:35	22.4	22.4	22.4	86	18.9	0	2	248	0.00	30.008 
03:40	22.4	22.4	22.4	86	18.9	0	1	248	0.00	30.008 
03:45	22.4	22.4	22.4	87	19.1	0	2	248	0.00	30.010 
03:50	22.4	22.4	22.4	87	19.1	0	3	248	0.00	30.010 
03:55	22.5	22.5	22.5	87	19.2	1	3	248	0.00	30.010 
04:00	22.5	22.5	22.5	87	19.2	0	3	248	0.00	30.010 
04:05	22.5	22.5	22.5	87	19.2	1	3	248	0.00	30.010 
04:10	22.5	22.5	22.5	87	19.2	0	2	248	0.00	30.010 
04:15	22.5	22.5	22.5	87	19.2	1	2	248	0.00	30.009 
04:20	22.5	22.5	22.5	87	19.2	0	1	248	0.00	30.009 
04:25	22.5	22.5	22.5	87	19.2	0	2	248	0.00	30.009 
04:30	22.4	22.4	22.4	87	19.1	0	2	248	0.00	30.009 
04:35	22.2	22.2	22.2	87	18.9	0	1	248	0.00	30.009 
04:40	22.2	22.2	22.2	87	18.9	0	1	248	0.00	30.009 
04:45	22.2	22.2	22.2	87	18.9	0	4	248	0.00	30.007 
04:50	22.2	22.2	22.2	87	18.9	0	2	248	0.00	30.007 
04:55	22.2	22.2	22.2	87	18.9	0	2	248	0.00	30.007 
05:00	22.2	22.2	22.2	87	18.9	0	2	248	0.00	30.007 
05:05	22.4	22.4	22.4	87	19.1	0	2	248	0.00	30.007 
05:10	22.4	22.4	22.4	87	19.1	0	1	248	0.00	30.007 
05:15	22.4	22.4	22.4	87	19.1	0	2	248	0.00	30.008 
05:20	22.4	22.4	22.4	87	19.1	0	1	248	0.00	30.008 
05:25	22.5	22.5	22.5	87	19.2	0	2	248	0.00	30.008 
05:30	22.4	22.4	22.4	87	19.1	0	1	248	0.00	30.007 
05:35	22.2	22.2	22.2	87	18.9	0	1	248	0.00	30.007 
05:40	22.2	22.2	22.2	87	18.9	1	3	248	0.00	30.007 
05:45	22.1	22.1	22.1	87	18.8	1	3	248	0.00	30.008 
05:50	21.9	21.9	21.9	87	18.6	0	2	248	0.00	30.008 
05:55	21.8	21.8	21.8	87	18.5	1	2	248	0.00	30.008 
06:00	21.6	21.6	21.6	87	18.3	1	3	248	0.00	30.011 
06:05	21.6	21.6	21.6	88	18.6	1	4	248	0.00	30.011 
06:10	21.8	21.8	21.8	88	18.8	1	6	248	0.00	30.011 
06:15	21.8	21.8	21.8	88	18.8	1	3	225	0.00	30.020 
06:20	21.9	21.9	21.9	88	18.9	1	4	270	0.00	30.020 
06:25	21.9	21.9	21.9	88	18.9	1	4	248	0.00	30.020 
06:30	21.9	21.9	21.9	88	18.9	1	5	225	0.00	30.024 
06:35	21.9	21.9	21.9	88	18.9	1	4	248	0.00	30.024 
06:40	22.1	22.1	22.1	88	19.1	1	5	248	0.00	30.024 
06:45	22.1	22.1	22.1	88	19.1	2	4	248	0.00	30.030 
06:50	22.1	22.1	22.1	88	19.1	1	4	248	0.00	30.030 
06:55	22.2	22.2	22.2	88	19.2	1	4	248	0.00	30.030 
07:00	22.2	22.2	22.2	88	19.2	1	4	248	0.00	30.039 
07:05	22.2	22.2	22.2	88	19.2	1	4	248	0.00	30.039 
07:10	22.4	22.4	22.4	88	19.4	1	2	248	0.00	30.039 
07:15	22.4	22.4	22.4	88	19.4	1	3	248	0.00	30.042 
07:20	22.4	22.4	22.4	88	19.4	2	5	248	0.00	30.042 
07:25	22.4	22.4	22.4	88	19.4	1	5	270	0.00	30.042 
07:30	22.5	22.5	22.5	88	19.5	2	4	248	0.00	30.043 
07:35	22.5	22.5	22.5	88	19.5	2	6	248	0.00	30.043 
07:40	22.5	22.5	22.5	88	19.5	2	5	248	0.00	30.043 
07:45	22.5	22.5	22.5	88	19.5	1	6	270	0.00	30.043 
07:50	22.5	22.5	22.5	88	19.5	2	5	248	0.00	30.043 
07:55	22.5	22.5	22.5	88	19.5	2	6	225	0.00	30.043 
08:00	22.5	22.5	22.5	87	19.2	1	5	248	0.00	30.050 
08:05	22.5	22.5	22.5	87	19.2	1	4	270	0.00	30.050 
08:10	22.7	22.7	22.7	87	19.4	1	2	270	0.00	30.050 
08:15	22.7	22.7	22.7	87	19.4	1	4	248	0.00	30.057 
08:20	22.7	22.7	22.7	86	19.2	2	6	248	0.00	30.057 
08:25	22.5	22.5	22.5	86	19.0	2	3	248	0.00	30.057 
08:30	22.5	22.5	22.5	86	19.0	2	5	248	0.00	30.068 
08:35	22.7	22.7	22.7	86	19.2	2	4	225	0.00	30.068 
08:40	22.5	22.5	22.5	86	19.0	2	4	225	0.00	30.068 
08:45	22.5	22.5	22.5	85	18.7	2	3	248	0.00	30.072 
08:50	22.5	22.5	22.5	85	18.7	2	4	248	0.00	30.072 
08:55	22.5	22.5	22.5	85	18.7	1	3	248	0.00	30.072 
09:00	22.5	22.5	22.5	85	18.7	1	4	248	0.00	30.073 
09:05	22.5	22.5	22.5	85	18.7	2	6	248	0.00	30.073 
09:10	22.5	22.5	22.5	85	18.7	2	6	248	0.00	30.073 
09:15	22.5	22.5	22.5	85	18.7	1	5	248	0.00	30.083 
09:20	22.5	22.5	22.5	85	18.7	1	3	248	0.00	30.083 
09:25	22.5	22.5	22.5	85	18.7	2	5	248	0.00	30.083 
09:30	22.5	22.5	22.5	85	18.7	2	3	270	0.00	30.086 
09:35	22.5	22.5	22.5	85	18.7	1	3	270	0.00	30.086 
09:40	22.7	22.7	22.7	85	18.9	2	5	270	0.00	30.086 
09:45	22.9	22.9	22.9	85	19.1	1	5	248	0.00	30.089 
09:50	22.7	22.7	22.7	84	18.6	2	6	248	0.00	30.089 
09:55	22.7	22.7	22.7	84	18.6	2	4	248	0.00	30.089 
10:00	22.7	22.7	22.7	84	18.6	2	6	248	0.00	30.093 
10:05	22.7	22.7	22.7	84	18.6	1	3	248	0.00	30.093 
10:10	22.9	22.9	22.9	84	18.8	1	5	248	0.00	30.093 
10:15	23.0	23.0	23.0	84	18.9	1	3	248	0.00	30.102 
10:20	23.0	23.0	23.0	83	18.6	1	4	248	0.00	30.102 
10:25	23.2	23.2	23.2	83	18.8	1	3	248	0.00	30.102 
10:30	23.3	23.3	23.3	82	18.6	1	3	248	0.00	30.108 
10:35	23.0	23.0	23.0	81	18.1	2	4	270	0.00	30.108 
10:40	23.0	23.0	23.0	81	18.1	2	5	248	0.00	30.108 
10:45	23.2	23.2	23.2	80	18.0	2	4	248	0.00	30.112 
10:50	23.2	23.2	23.2	79	17.7	2	4	248	0.00	30.112 
10:55	23.3	23.3	23.3	78	17.5	3	7	248	0.00	30.112 
11:00	23.2	23.2	23.2	77	17.1	3	7	248	0.00	30.116 
11:05	23.2	23.2	23.2	77	17.1	3	7	248	0.00	30.116 
11:10	23.0	23.0	23.0	77	16.9	3	6	270	0.00	30.116 
11:15	23.0	23.0	23.0	77	16.9	2	5	225	0.00	30.120 
11:20	23.0	23.0	23.0	77	16.9	3	7	248	0.00	30.120 
11:25	23.0	23.0	23.0	76	16.6	3	7	225	0.00	30.120 
11:30	22.9	22.9	22.9	77	16.8	3	6	248	0.00	30.120 
11:35	22.9	22.9	22.9	76	16.5	3	9	248	0.00	30.120 
11:40	22.9	22.9	22.9	76	16.5	3	7	248	0.00	30.120 
11:45	22.7	22.7	22.7	76	16.3	3	7	270	0.00	30.119 
11:50	22.5	22.5	22.5	75	15.8	3	9	270	0.00	30.119 
11:55	22.4	22.4	22.4	74	15.4	3	6	270	0.00	30.119 
12:00	22.5	22.5	22.5	74	15.5	2	4	248	0.00	30.120 
12:05	22.7	22.7	22.7	73	15.4	3	5	248	0.00	30.120 
12:10	22.9	22.9	22.9	71	14.9	3	6	248	0.00	30.120 
12:15	22.9	22.9	22.9	69	14.3	3	5	270	0.00	30.119 
12:20	23.0	23.0	23.0	69	14.4	2	5	270	0.00	30.119 
12:25	23.2	23.2	23.2	67	13.9	3	5	270	0.00	30.119 
12:30	23.2	23.2	23.2	66	13.6	3	7	248	0.00	30.116 
12:35	23.2	23.2	23.2	66	13.6	3	6	270	0.00	30.116 
12:40	23.5	23.5	23.5	67	14.2	2	6	248	0.00	30.116 
12:45	23.6	23.6	23.6	65	13.6	2	4	248	0.00	30.109 
12:50	23.5	18.3	23.5	64	13.1	4	7	248	0.00	30.109 
12:55	23.3	18.0	23.3	63	12.6	4	11	248	0.00	30.109 
13:00	23.5	23.5	23.5	63	12.8	3	6	248	0.00	30.106 
13:05	23.6	23.6	23.6	62	12.5	3	9	270	0.00	30.106 
13:10	23.8	23.8	23.8	62	12.7	2	7	248	0.00	30.106 
13:15	23.9	18.7	23.9	62	12.8	4	10	248	0.00	30.106 
13:20	23.9	23.9	23.9	62	12.8	2	5	248	0.00	30.106 
13:25	24.2	24.2	24.2	62	13.1	2	4	270	0.00	30.106 
13:30	24.1	24.1	24.1	61	12.6	3	6	270	0.00	30.103 
13:35	24.2	24.2	24.2	62	13.1	2	6	248	0.00	30.103 
13:40	24.4	24.4	24.4	61	12.9	2	9	248	0.00	30.103 
13:45	24.2	19.1	24.2	61	12.7	4	9	270	0.00	30.103 
13:50	24.2	24.2	24.2	61	12.7	3	8	270	0.00	30.103 
13:55	24.4	24.4	24.4	62	13.3	2	6	225	0.00	30.103 
14:00	24.5	24.5	24.5	61	13.0	3	9	248	0.00	30.101 
14:05	24.4	24.4	24.4	61	12.9	3	7	248	0.00	30.101 
14:10	24.4	24.4	24.4	61	12.9	3	9	248	0.00	30.101 
14:15	24.2	24.2	24.2	61	12.7	3	11	270	0.00	30.104 
14:20	24.4	24.4	24.4	61	12.9	3	7	248	0.00	30.104 
14:25	24.4	24.4	24.4	60	12.5	3	6	270	0.00	30.104 
14:30	24.4	24.4	24.4	59	12.2	3	6	248	0.00	30.103 
14:35	24.4	24.4	24.4	60	12.5	3	7	270	0.00	30.103 
14:40	24.4	24.4	24.4	60	12.5	3	6	248	0.00	30.103 
14:45	24.5	24.5	24.5	61	13.0	2	6	248	0.00	30.102 
14:50	24.4	19.3	24.4	60	12.5	4	9	248	0.00	30.102 
14:55	24.1	19.0	24.1	60	12.3	4	9	248	0.00	30.102 
15:00	23.9	18.7	23.9	59	11.7	4	10	248	0.00	30.106 
15:05	23.9	23.9	23.9	59	11.7	3	7	248	0.00	30.106 
15:10	23.9	23.9	23.9	60	12.1	3	6	248	0.00	30.106 
15:15	24.1	24.1	24.1	59	11.9	3	6	248	0.00	30.112 
15:20	24.1	24.1	24.1	59	11.9	3	7	248	0.00	30.112 
15:25	24.2	24.2	24.2	59	12.0	2	10	270	0.00	30.112 
15:30	24.4	24.4	24.4	59	12.2	2	5	248	0.00	30.117 
15:35	24.2	24.2	24.2	58	11.6	3	5	270	0.00	30.117 
15:40	24.2	24.2	24.2	59	12.0	3	7	270	0.00	30.117 
15:45	24.2	19.1	24.2	59	12.0	4	9	248	0.00	30.120 
15:50	24.1	24.1	24.1	60	12.3	3	7	248	0.00	30.120 
15:55	23.6	18.4	23.6	63	12.9	4	11	270	0.00	30.120 
16:00	23.2	23.2	23.2	62	12.1	3	12	248	0.00	30.121 
16:05	23.0	23.0	23.0	63	12.3	3	10	248	0.00	30.121 
16:10	22.9	22.9	22.9	63	12.2	3	7	248	0.00	30.121 
16:15	22.7	22.7	22.7	64	12.4	3	7	248	0.00	30.120 
16:20	22.5	22.5	22.5	64	12.2	3	5	270	0.00	30.120 
16:25	22.5	22.5	22.5	65	12.5	3	9	248	0.00	30.120 
16:30	22.4	22.4	22.4	66	12.8	2	5	248	0.00	30.120 
16:35	22.4	22.4	22.4	66	12.8	2	7	248	0.00	30.120 
16:40	22.2	22.2	22.2	67	12.9	2	7	248	0.00	30.120 
16:45	21.9	21.9	21.9	68	13.0	2	7	248	0.00	30.119 
16:50	21.6	21.6	21.6	71	13.7	3	6	248	0.00	30.119 
16:55	21.4	21.4	21.4	69	12.8	2	5	248	0.00	30.119 
17:00	21.1	21.1	21.1	69	12.5	2	4	270	0.00	30.127 
17:05	20.8	20.8	20.8	70	12.6	2	5	248	0.00	30.127 
17:10	20.6	20.6	20.6	70	12.4	2	5	248	0.00	30.127 
17:15	20.5	20.5	20.5	71	12.6	2	5	248	0.00	30.137 
17:20	20.3	20.3	20.3	71	12.4	1	3	248	0.00	30.137 
17:25	20.2	20.2	20.2	72	12.6	1	4	248	0.00	30.137 
17:30	20.0	20.0	20.0	73	12.8	2	6	248	0.00	30.139 
17:35	19.7	19.7	19.7	73	12.5	2	6	248	0.00	30.139 
17:40	19.5	19.5	19.5	74	12.6	2	6	248	0.00	30.139 
17:45	19.4	19.4	19.4	74	12.5	2	7	225	0.00	30.143 
17:50	19.1	19.1	19.1	75	12.5	1	4	225	0.00	30.143 
17:55	18.9	18.9	18.9	75	12.3	1	4	225	0.00	30.143 
18:00	18.8	18.8	18.8	76	12.5	1	3	248	0.00	30.146 
18:05	18.6	18.6	18.6	76	12.3	2	5	248	0.00	30.146 
18:10	18.4	18.4	18.4	76	12.1	1	5	248	0.00	30.146 
18:15	18.3	18.3	18.3	77	12.3	2	9	248	0.00	30.150 
18:20	18.1	18.1	18.1	77	12.1	2	5	248	0.00	30.150 
18:25	18.1	18.1	18.1	78	12.4	2	6	248	0.00	30.150 
18:30	18.0	18.0	18.0	78	12.3	2	6	248	0.00	30.155 
18:35	18.0	18.0	18.0	78	12.3	1	4	248	0.00	30.155 
18:40	17.8	17.8	17.8	79	12.4	1	4	248	0.00	30.155 
18:45	17.8	17.8	17.8	79	12.4	1	4	248	0.00	30.156 
18:50	17.8	17.8	17.8	79	12.4	2	6	248	0.00	30.156 
18:55	17.7	17.7	17.7	79	12.3	2	5	248	0.00	30.156 
19:00	17.7	17.7	17.7	80	12.6	2	5	248	0.00	30.158 
19:05	17.7	17.7	17.7	80	12.6	2	5	248	0.00	30.158 
19:10	17.7	17.7	17.7	80	12.6	2	6	248	0.00	30.158 
19:15	17.7	17.7	17.7	80	12.6	2	5	248	0.00	30.155 
19:20	17.7	17.7	17.7	80	12.6	2	6	248	0.00	30.155 
19:25	17.7	17.7	17.7	80	12.6	2	7	248	0.00	30.155 
19:30	17.7	17.7	17.7	80	12.6	1	5	248	0.00	30.154 
19:35	17.7	17.7	17.7	80	12.6	2	5	225	0.00	30.154 
19:40	17.7	17.7	17.7	80	12.6	1	5	248	0.00	30.154 
19:45	17.5	17.5	17.5	80	12.4	1	5	248	0.00	30.156 
19:50	17.5	17.5	17.5	80	12.4	3	9	248	0.00	30.156 
19:55	17.5	17.5	17.5	79	12.1	2	6	248	0.00	30.156 
20:00	17.5	17.5	17.5	79	12.1	3	7	248	0.00	30.156 
20:05	17.5	17.5	17.5	79	12.1	1	6	248	0.00	30.156 
20:10	17.3	17.3	17.3	79	11.9	2	5	248	0.00	30.156 
20:15	17.3	17.3	17.3	79	11.9	1	5	248	0.00	30.156 
20:20	17.3	17.3	17.3	79	11.9	2	6	248	0.00	30.156 
20:25	17.2	17.2	17.2	79	11.8	2	5	248	0.00	30.156 
20:30	17.2	17.2	17.2	79	11.8	1	4	248	0.00	30.156 
20:35	17.2	17.2	17.2	79	11.8	2	7	248	0.00	30.156 
20:40	17.2	17.2	17.2	79	11.8	2	6	248	0.00	30.156 
20:45	17.0	17.0	17.0	79	11.6	2	6	248	0.00	30.153 
20:50	17.0	17.0	17.0	78	11.3	1	5	248	0.00	30.153 
20:55	16.9	16.9	16.9	79	11.5	2	5	248	0.00	30.153 
21:00	16.9	16.9	16.9	79	11.5	2	11	248	0.00	30.153 
21:05	16.7	16.7	16.7	79	11.3	2	5	248	0.00	30.153 
21:10	16.7	16.7	16.7	79	11.3	1	5	248	0.00	30.153 
21:15	16.5	16.5	16.5	79	11.1	2	6	248	0.00	30.143 
21:20	16.5	16.5	16.5	79	11.1	1	4	248	0.00	30.143 
21:25	16.5	16.5	16.5	79	11.1	2	6	248	0.00	30.143 
21:30	16.4	16.4	16.4	79	11.0	1	4	248	0.00	30.146 
21:35	16.4	16.4	16.4	79	11.0	1	5	248	0.00	30.146 
21:40	16.2	16.2	16.2	79	10.9	2	6	248	0.00	30.146 
21:45	16.2	16.2	16.2	79	10.9	1	5	248	0.00	30.144 
21:50	16.2	16.2	16.2	79	10.9	1	5	270	0.00	30.144 
21:55	16.1	16.1	16.1	79	10.8	0	3	270	0.00	30.144 
22:00	15.9	15.9	15.9	79	10.6	1	4	248	0.00	30.144 
22:05	15.9	15.9	15.9	79	10.6	0	2	248	0.00	30.144 
22:10	15.7	15.7	15.7	79	10.4	1	5	248	0.00	30.144 
22:15	15.6	15.6	15.6	79	10.3	1	5	248	0.00	30.145 
22:20	15.6	15.6	15.6	79	10.3	2	6	225	0.00	30.145 
22:25	15.4	15.4	15.4	79	10.1	1	4	248	0.00	30.145 
22:30	15.4	15.4	15.4	79	10.1	2	6	248	0.00	30.146 
22:35	15.2	15.2	15.2	79	9.9	1	5	248	0.00	30.146 
22:40	15.2	15.2	15.2	79	9.9	1	3	248	0.00	30.146 
22:45	15.1	15.1	15.1	79	9.8	2	5	248	0.00	30.148 
22:50	15.1	15.1	15.1	79	9.8	1	5	225	0.00	30.148 
22:55	14.9	14.9	14.9	79	9.6	1	6	248	0.00	30.148 
23:00	14.9	14.9	14.9	78	9.3	1	3	248	0.00	30.147 
23:05	14.8	14.8	14.8	78	9.2	1	4	248	0.00	30.147 
23:10	14.8	14.8	14.8	78	9.2	2	7	248	0.00	30.147 
23:15	14.8	14.8	14.8	77	8.9	2	4	248	0.00	30.146 
23:20	14.8	14.8	14.8	77	8.9	2	7	248	0.00	30.146 
23:25	14.8	14.8	14.8	77	8.9	1	6	248	0.00	30.146 
23:30	14.8	14.8	14.8	77	8.9	1	6	248	0.00	30.143 
23:35	14.8	14.8	14.8	76	8.6	2	7	248	0.00	30.143 
23:40	14.8	14.8	14.8	76	8.6	2	6	248	0.00	30.143 
23:45	14.6	14.6	14.6	76	8.4	2	4	248	0.00	30.143 
23:50	14.6	14.6	14.6	75	8.1	2	7	248	0.00	30.143 
23:55	14.6	14.6	14.6	75	8.1	1	9	248	0.00	30.143 

CoCoRaHS
IN-AL-39
A2 Web Hosting
Creative Commons License
GoDaddy
search engine by freefind advanced

loaded 2018-11-20 02:23:19 • last modified 2010-11-18 10:43:29
Privacy PolicyDisclaimer
• wx.awcolley.com is powered by PmWiki v.2002016 •
• all content (unless otherwise noted) © 2018 A W Colley